sensor_id;sensor_type;location;lat;lon;timestamp;pressure;altitude;pressure_sealevel;temperature;humidity
63395;BME280;49531;-34.520;150.798;2023-01-15T00:02:17;100730.03;;;25.12;58.42
63395;BME280;49531;-34.520;150.798;2023-01-15T00:04:44;100728.63;;;25.14;58.09
63395;BME280;49531;-34.520;150.798;2023-01-15T00:07:11;100732.91;;;25.20;57.92
63395;BME280;49531;-34.520;150.798;2023-01-15T00:09:38;100732.31;;;25.23;58.33
63395;BME280;49531;-34.520;150.798;2023-01-15T00:12:05;100727.91;;;25.27;57.98
63395;BME280;49531;-34.520;150.798;2023-01-15T00:14:32;100731.69;;;25.32;58.04
63395;BME280;49531;-34.520;150.798;2023-01-15T00:16:59;100719.88;;;25.36;58.21
63395;BME280;49531;-34.520;150.798;2023-01-15T00:19:26;100721.72;;;25.41;58.27
63395;BME280;49531;-34.520;150.798;2023-01-15T00:21:53;100715.69;;;25.44;58.06
63395;BME280;49531;-34.520;150.798;2023-01-15T00:24:20;100702.22;;;25.47;58.44
63395;BME280;49531;-34.520;150.798;2023-01-15T00:26:59;100708.44;;;25.53;58.39
63395;BME280;49531;-34.520;150.798;2023-01-15T00:29:38;100706.75;;;25.57;58.22
63395;BME280;49531;-34.520;150.798;2023-01-15T00:32:06;100698.75;;;25.60;58.36
63395;BME280;49531;-34.520;150.798;2023-01-15T00:34:34;100694.59;;;25.63;58.17
63395;BME280;49531;-34.520;150.798;2023-01-15T00:37:01;100697.81;;;25.70;58.26
63395;BME280;49531;-34.520;150.798;2023-01-15T00:39:29;100695.00;;;25.75;58.13
63395;BME280;49531;-34.520;150.798;2023-01-15T00:41:56;100688.94;;;25.78;58.12
63395;BME280;49531;-34.520;150.798;2023-01-15T00:44:23;100679.84;;;25.83;57.82
63395;BME280;49531;-34.520;150.798;2023-01-15T00:46:50;100688.59;;;25.85;57.88
63395;BME280;49531;-34.520;150.798;2023-01-15T00:49:17;100682.22;;;25.89;57.81
63395;BME280;49531;-34.520;150.798;2023-01-15T00:51:44;100676.97;;;25.93;57.99
63395;BME280;49531;-34.520;150.798;2023-01-15T00:54:12;100674.44;;;25.97;57.88
63395;BME280;49531;-34.520;150.798;2023-01-15T00:56:40;100663.69;;;26.00;57.86
63395;BME280;49531;-34.520;150.798;2023-01-15T00:59:07;100659.53;;;26.03;57.51
63395;BME280;49531;-34.520;150.798;2023-01-15T01:01:35;100652.34;;;26.07;57.42
63395;BME280;49531;-34.520;150.798;2023-01-15T01:04:02;100649.03;;;26.10;57.41
63395;BME280;49531;-34.520;150.798;2023-01-15T01:06:29;100657.44;;;26.13;57.56
63395;BME280;49531;-34.520;150.798;2023-01-15T01:08:56;100646.72;;;26.17;57.24
63395;BME280;49531;-34.520;150.798;2023-01-15T01:11:24;100644.50;;;26.19;57.24
63395;BME280;49531;-34.520;150.798;2023-01-15T01:13:53;100651.81;;;26.23;57.33
63395;BME280;49531;-34.520;150.798;2023-01-15T01:16:25;100635.91;;;26.25;57.27
63395;BME280;49531;-34.520;150.798;2023-01-15T01:18:53;100630.94;;;26.28;57.10
63395;BME280;49531;-34.520;150.798;2023-01-15T01:21:21;100641.81;;;26.33;57.09
63395;BME280;49531;-34.520;150.798;2023-01-15T01:23:48;100627.53;;;26.36;56.89
63395;BME280;49531;-34.520;150.798;2023-01-15T01:26:15;100627.72;;;26.39;56.82
63395;BME280;49531;-34.520;150.798;2023-01-15T01:28:47;100628.22;;;26.41;56.89
63395;BME280;49531;-34.520;150.798;2023-01-15T01:31:14;100627.63;;;26.44;56.73
63395;BME280;49531;-34.520;150.798;2023-01-15T01:33:41;100627.81;;;26.48;56.89
63395;BME280;49531;-34.520;150.798;2023-01-15T01:36:09;100617.38;;;26.50;56.60
63395;BME280;49531;-34.520;150.798;2023-01-15T01:38:36;100628.53;;;26.53;56.58
63395;BME280;49531;-34.520;150.798;2023-01-15T01:41:03;100637.28;;;26.55;56.47
63395;BME280;49531;-34.520;150.798;2023-01-15T01:43:30;100628.44;;;26.58;56.50
63395;BME280;49531;-34.520;150.798;2023-01-15T01:45:57;100630.59;;;26.62;56.30
63395;BME280;49531;-34.520;150.798;2023-01-15T01:48:28;100624.50;;;26.65;56.22
63395;BME280;49531;-34.520;150.798;2023-01-15T01:50:59;100625.81;;;26.67;56.11
63395;BME280;49531;-34.520;150.798;2023-01-15T01:53:29;100617.00;;;26.70;56.03
63395;BME280;49531;-34.520;150.798;2023-01-15T01:55:58;100622.19;;;26.72;55.98
63395;BME280;49531;-34.520;150.798;2023-01-15T01:58:29;100627.56;;;26.77;56.04
63395;BME280;49531;-34.520;150.798;2023-01-15T02:00:57;100630.81;;;26.79;55.93
63395;BME280;49531;-34.520;150.798;2023-01-15T02:03:29;100622.25;;;26.80;55.80
63395;BME280;49531;-34.520;150.798;2023-01-15T02:05:59;100616.16;;;26.83;55.61
63395;BME280;49531;-34.520;150.798;2023-01-15T02:08:27;100603.78;;;26.86;55.54
63395;BME280;49531;-34.520;150.798;2023-01-15T02:10:55;100609.75;;;26.88;55.52
63395;BME280;49531;-34.520;150.798;2023-01-15T02:13:34;100600.94;;;26.91;55.46
63395;BME280;49531;-34.520;150.798;2023-01-15T02:16:10;100597.88;;;26.92;55.54
63395;BME280;49531;-34.520;150.798;2023-01-15T02:18:57;100605.22;;;26.97;55.62
63395;BME280;49531;-34.520;150.798;2023-01-15T02:21:48;100595.88;;;26.98;55.19
63395;BME280;49531;-34.520;150.798;2023-01-15T02:24:43;100585.41;;;27.00;55.21
63395;BME280;49531;-34.520;150.798;2023-01-15T02:27:17;100601.25;;;27.03;55.08
63395;BME280;49531;-34.520;150.798;2023-01-15T02:30:03;100597.91;;;27.06;55.08
63395;BME280;49531;-34.520;150.798;2023-01-15T02:32:39;100585.50;;;27.09;54.72
63395;BME280;49531;-34.520;150.798;2023-01-15T02:35:17;100584.38;;;27.10;54.92
63395;BME280;49531;-34.520;150.798;2023-01-15T02:37:48;100575.75;;;27.16;54.43
63395;BME280;49531;-34.520;150.798;2023-01-15T02:40:19;100583.16;;;27.16;54.62
63395;BME280;49531;-34.520;150.798;2023-01-15T02:42:48;100575.44;;;27.18;54.68
63395;BME280;49531;-34.520;150.798;2023-01-15T02:45:19;100577.84;;;27.19;54.38
63395;BME280;49531;-34.520;150.798;2023-01-15T02:47:52;100564.63;;;27.21;54.59
63395;BME280;49531;-34.520;150.798;2023-01-15T02:50:26;100567.06;;;27.23;54.35
63395;BME280;49531;-34.520;150.798;2023-01-15T02:52:59;100571.13;;;27.26;54.42
63395;BME280;49531;-34.520;150.798;2023-01-15T02:55:34;100562.28;;;27.29;54.14
63395;BME280;49531;-34.520;150.798;2023-01-15T02:58:06;100562.28;;;27.29;54.49
63395;BME280;49531;-34.520;150.798;2023-01-15T03:00:39;100559.22;;;27.30;54.05
63395;BME280;49531;-34.520;150.798;2023-01-15T03:03:21;100557.81;;;27.33;54.35
63395;BME280;49531;-34.520;150.798;2023-01-15T03:05:57;100557.19;;;27.36;54.28
63395;BME280;49531;-34.520;150.798;2023-01-15T03:08:26;100556.06;;;27.37;54.41
63395;BME280;49531;-34.520;150.798;2023-01-15T03:11:05;100555.75;;;27.38;54.20
63395;BME280;49531;-34.520;150.798;2023-01-15T03:13:46;100563.66;;;27.40;54.44
63395;BME280;49531;-34.520;150.798;2023-01-15T03:16:33;100561.44;;;27.42;54.40
63395;BME280;49531;-34.520;150.798;2023-01-15T03:22:04;100544.84;;;27.47;54.60
63395;BME280;49531;-34.520;150.798;2023-01-15T03:24:42;100551.66;;;27.49;54.46
63395;BME280;49531;-34.520;150.798;2023-01-15T03:27:10;100546.97;;;27.50;54.44
63395;BME280;49531;-34.520;150.798;2023-01-15T03:29:42;100536.50;;;27.52;54.49
63395;BME280;49531;-34.520;150.798;2023-01-15T03:32:10;100537.00;;;27.54;54.55
63395;BME280;49531;-34.520;150.798;2023-01-15T03:34:45;100523.78;;;27.56;54.60
63395;BME280;49531;-34.520;150.798;2023-01-15T03:37:13;100525.41;;;27.57;54.52
63395;BME280;49531;-34.520;150.798;2023-01-15T03:39:41;100523.97;;;27.60;54.80
63395;BME280;49531;-34.520;150.798;2023-01-15T03:45:06;100522.22;;;27.64;54.91
63395;BME280;49531;-34.520;150.798;2023-01-15T03:48:00;100524.34;;;27.67;55.02
63395;BME280;49531;-34.520;150.798;2023-01-15T03:50:49;100527.56;;;27.69;54.99
63395;BME280;49531;-34.520;150.798;2023-01-15T03:53:26;100515.16;;;27.71;54.98
63395;BME280;49531;-34.520;150.798;2023-01-15T03:56:09;100523.09;;;27.73;55.10
63395;BME280;49531;-34.520;150.798;2023-01-15T03:58:44;100512.91;;;27.73;55.11
63395;BME280;49531;-34.520;150.798;2023-01-15T04:01:17;100510.66;;;27.75;55.07
63395;BME280;49531;-34.520;150.798;2023-01-15T04:03:46;100509.22;;;27.78;54.79
63395;BME280;49531;-34.520;150.798;2023-01-15T04:06:15;100515.53;;;27.78;54.81
63395;BME280;49531;-34.520;150.798;2023-01-15T04:08:45;100513.28;;;27.80;54.71
63395;BME280;49531;-34.520;150.798;2023-01-15T04:11:21;100518.47;;;27.82;54.85
63395;BME280;49531;-34.520;150.798;2023-01-15T04:13:50;100518.47;;;27.82;54.63
63395;BME280;49531;-34.520;150.798;2023-01-15T04:16:24;100512.66;;;27.83;54.70
63395;BME280;49531;-34.520;150.798;2023-01-15T04:18:52;100521.69;;;27.84;54.30
63395;BME280;49531;-34.520;150.798;2023-01-15T04:21:19;100515.91;;;27.85;54.41
63395;BME280;49531;-34.520;150.798;2023-01-15T04:23:47;100512.03;;;27.86;54.55
63395;BME280;49531;-34.520;150.798;2023-01-15T04:26:14;100505.41;;;27.87;54.63
63395;BME280;49531;-34.520;150.798;2023-01-15T04:28:42;100500.41;;;27.89;54.47
63395;BME280;49531;-34.520;150.798;2023-01-15T04:31:09;100491.06;;;27.91;54.27
63395;BME280;49531;-34.520;150.798;2023-01-15T04:33:37;100500.09;;;27.91;54.14
63395;BME280;49531;-34.520;150.798;2023-01-15T04:36:06;100495.44;;;27.92;54.12
63395;BME280;49531;-34.520;150.798;2023-01-15T04:38:36;100503.66;;;27.92;54.17
63395;BME280;49531;-34.520;150.798;2023-01-15T04:41:04;100526.13;;;27.94;54.23
63395;BME280;49531;-34.520;150.798;2023-01-15T04:43:43;100511.28;;;27.95;54.20
63395;BME280;49531;-34.520;150.798;2023-01-15T04:46:23;100516.75;;;27.95;53.97
63395;BME280;49531;-34.520;150.798;2023-01-15T04:48:51;100521.13;;;27.96;54.07
63395;BME280;49531;-34.520;150.798;2023-01-15T04:51:18;100520.00;;;27.97;54.03
63395;BME280;49531;-34.520;150.798;2023-01-15T04:53:45;100525.75;;;27.86;51.91
63395;BME280;49531;-34.520;150.798;2023-01-15T04:56:12;100532.44;;;27.72;51.88
63395;BME280;49531;-34.520;150.798;2023-01-15T04:58:39;100538.06;;;27.67;51.67
63395;BME280;49531;-34.520;150.798;2023-01-15T05:01:11;100553.47;;;27.54;51.51
63395;BME280;49531;-34.520;150.798;2023-01-15T05:03:39;100577.47;;;27.48;51.82
63395;BME280;49531;-34.520;150.798;2023-01-15T05:06:07;100601.47;;;27.43;52.04
63395;BME280;49531;-34.520;150.798;2023-01-15T05:08:35;100601.84;;;27.50;52.07
63395;BME280;49531;-34.520;150.798;2023-01-15T05:11:05;100594.09;;;27.52;52.03
63395;BME280;49531;-34.520;150.798;2023-01-15T05:13:33;100588.22;;;27.59;52.14
63395;BME280;49531;-34.520;150.798;2023-01-15T05:16:13;100590.81;;;27.64;52.17
63395;BME280;49531;-34.520;150.798;2023-01-15T05:18:42;100601.97;;;27.67;52.54
63395;BME280;49531;-34.520;150.798;2023-01-15T05:21:16;100596.19;;;27.69;52.44
63395;BME280;49531;-34.520;150.798;2023-01-15T05:23:44;100584.09;;;27.70;52.47
63395;BME280;49531;-34.520;150.798;2023-01-15T05:26:11;100573.91;;;27.70;52.47
63395;BME280;49531;-34.520;150.798;2023-01-15T05:28:39;100592.00;;;27.71;52.98
63395;BME280;49531;-34.520;150.798;2023-01-15T05:31:08;100584.91;;;27.70;52.73
63395;BME280;49531;-34.520;150.798;2023-01-15T05:33:36;100594.75;;;27.71;52.77
63395;BME280;49531;-34.520;150.798;2023-01-15T05:36:06;100593.94;;;27.71;52.95
63395;BME280;49531;-34.520;150.798;2023-01-15T05:38:34;100613.16;;;27.71;53.10
63395;BME280;49531;-34.520;150.798;2023-01-15T05:41:04;100612.34;;;27.70;53.42
63395;BME280;49531;-34.520;150.798;2023-01-15T05:43:51;100598.63;;;27.70;53.56
63395;BME280;49531;-34.520;150.798;2023-01-15T05:46:19;100584.41;;;27.68;53.66
63395;BME280;49531;-34.520;150.798;2023-01-15T05:48:46;100574.53;;;27.67;53.88
63395;BME280;49531;-34.520;150.798;2023-01-15T05:51:13;100572.28;;;27.69;54.14
63395;BME280;49531;-34.520;150.798;2023-01-15T05:53:40;100567.13;;;27.68;54.25
63395;BME280;49531;-34.520;150.798;2023-01-15T05:56:07;100559.69;;;27.68;54.42
63395;BME280;49531;-34.520;150.798;2023-01-15T05:58:35;100553.72;;;27.66;54.42
63395;BME280;49531;-34.520;150.798;2023-01-15T06:01:07;100566.63;;;27.66;54.57
63395;BME280;49531;-34.520;150.798;2023-01-15T06:03:34;100585.34;;;27.64;54.71
63395;BME280;49531;-34.520;150.798;2023-01-15T06:06:03;100602.09;;;27.62;54.71
63395;BME280;49531;-34.520;150.798;2023-01-15T06:08:30;100617.44;;;27.63;54.67
63395;BME280;49531;-34.520;150.798;2023-01-15T06:10:58;100627.63;;;27.63;54.63
63395;BME280;49531;-34.520;150.798;2023-01-15T06:13:25;100633.72;;;27.60;54.84
63395;BME280;49531;-34.520;150.798;2023-01-15T06:15:52;100629.84;;;27.61;54.63
63395;BME280;49531;-34.520;150.798;2023-01-15T06:18:19;100626.81;;;27.62;54.60
63395;BME280;49531;-34.520;150.798;2023-01-15T06:20:46;100618.88;;;27.61;54.64
63395;BME280;49531;-34.520;150.798;2023-01-15T06:23:13;100623.56;;;27.60;54.87
63395;BME280;49531;-34.520;150.798;2023-01-15T06:25:40;100622.75;;;27.60;54.99
63395;BME280;49531;-34.520;150.798;2023-01-15T06:28:07;100620.81;;;27.60;55.01
63395;BME280;49531;-34.520;150.798;2023-01-15T06:30:35;100611.00;;;27.59;55.20
63395;BME280;49531;-34.520;150.798;2023-01-15T06:33:03;100598.66;;;27.56;56.04
63395;BME280;49531;-34.520;150.798;2023-01-15T06:35:30;100605.28;;;27.55;55.73
63395;BME280;49531;-34.520;150.798;2023-01-15T06:37:57;100600.59;;;27.56;55.42
63395;BME280;49531;-34.520;150.798;2023-01-15T06:40:24;100595.13;;;27.56;55.45
63395;BME280;49531;-34.520;150.798;2023-01-15T06:42:57;100600.91;;;27.54;56.19
63395;BME280;49531;-34.520;150.798;2023-01-15T06:45:47;100613.00;;;27.53;55.65
63395;BME280;49531;-34.520;150.798;2023-01-15T06:48:26;100595.72;;;27.53;55.85
63395;BME280;49531;-34.520;150.798;2023-01-15T06:50:53;100585.06;;;27.51;55.74
63395;BME280;49531;-34.520;150.798;2023-01-15T06:53:21;100581.50;;;27.51;55.85
63395;BME280;49531;-34.520;150.798;2023-01-15T06:55:48;100584.25;;;27.51;55.91
63395;BME280;49531;-34.520;150.798;2023-01-15T06:58:15;100586.19;;;27.50;55.91
63395;BME280;49531;-34.520;150.798;2023-01-15T07:00:42;100599.41;;;27.48;56.02
63395;BME280;49531;-34.520;150.798;2023-01-15T07:03:10;100597.28;;;27.45;57.37
63395;BME280;49531;-34.520;150.798;2023-01-15T07:05:40;100598.09;;;27.46;57.06
63395;BME280;49531;-34.520;150.798;2023-01-15T07:08:07;100594.53;;;27.45;56.93
63395;BME280;49531;-34.520;150.798;2023-01-15T07:10:35;100596.47;;;27.45;56.69
63395;BME280;49531;-34.520;150.798;2023-01-15T07:13:02;100595.16;;;27.42;57.06
63395;BME280;49531;-34.520;150.798;2023-01-15T07:15:29;100595.47;;;27.41;56.79
63395;BME280;49531;-34.520;150.798;2023-01-15T07:17:56;100599.03;;;27.41;57.00
63395;BME280;49531;-34.520;150.798;2023-01-15T07:20:23;100599.84;;;27.42;57.04
63395;BME280;49531;-34.520;150.798;2023-01-15T07:22:51;100605.63;;;27.40;57.21
63395;BME280;49531;-34.520;150.798;2023-01-15T07:25:18;100599.63;;;27.38;57.07
63395;BME280;49531;-34.520;150.798;2023-01-15T07:27:46;100600.44;;;27.39;57.12
63395;BME280;49531;-34.520;150.798;2023-01-15T07:30:14;100596.41;;;27.36;57.06
63395;BME280;49531;-34.520;150.798;2023-01-15T07:32:41;100601.06;;;27.36;57.55
63395;BME280;49531;-34.520;150.798;2023-01-15T07:35:08;100611.53;;;27.34;57.51
63395;BME280;49531;-34.520;150.798;2023-01-15T07:37:35;100630.75;;;27.34;57.18
63395;BME280;49531;-34.520;150.798;2023-01-15T07:40:05;100636.22;;;27.34;57.46
63395;BME280;49531;-34.520;150.798;2023-01-15T07:42:32;100645.88;;;27.31;57.22
63395;BME280;49531;-34.520;150.798;2023-01-15T07:45:11;100646.69;;;27.32;57.31
63395;BME280;49531;-34.520;150.798;2023-01-15T07:47:50;100651.66;;;27.30;57.65
63395;BME280;49531;-34.520;150.798;2023-01-15T07:50:29;100658.78;;;27.31;57.54
63395;BME280;49531;-34.520;150.798;2023-01-15T07:52:56;100672.78;;;27.29;57.48
63395;BME280;49531;-34.520;150.798;2023-01-15T07:55:23;100688.44;;;27.29;57.75
63395;BME280;49531;-34.520;150.798;2023-01-15T07:57:50;100698.59;;;27.28;57.67
63395;BME280;49531;-34.520;150.798;2023-01-15T08:00:21;100705.50;;;27.26;58.46
63395;BME280;49531;-34.520;150.798;2023-01-15T08:02:48;100713.22;;;27.23;58.40
63395;BME280;49531;-34.520;150.798;2023-01-15T08:05:16;100727.75;;;27.24;58.42
63395;BME280;49531;-34.520;150.798;2023-01-15T08:07:44;100734.66;;;27.21;58.52
63395;BME280;49531;-34.520;150.798;2023-01-15T08:10:12;100744.66;;;27.17;58.96
63395;BME280;49531;-34.520;150.798;2023-01-15T08:12:39;100751.84;;;27.13;59.29
63395;BME280;49531;-34.520;150.798;2023-01-15T08:15:18;100759.78;;;27.15;58.88
63395;BME280;49531;-34.520;150.798;2023-01-15T08:17:47;100759.47;;;27.16;58.62
63395;BME280;49531;-34.520;150.798;2023-01-15T08:20:22;100766.59;;;27.17;58.41
63395;BME280;49531;-34.520;150.798;2023-01-15T08:22:49;100783.63;;;27.14;58.60
63395;BME280;49531;-34.520;150.798;2023-01-15T08:25:19;100811.56;;;27.16;58.55
63395;BME280;49531;-34.520;150.798;2023-01-15T08:27:46;100841.22;;;27.14;58.52
63395;BME280;49531;-34.520;150.798;2023-01-15T08:30:17;100858.78;;;27.13;59.11
63395;BME280;49531;-34.520;150.798;2023-01-15T08:32:44;100875.56;;;27.12;58.96
63395;BME280;49531;-34.520;150.798;2023-01-15T08:35:12;100893.41;;;27.09;59.19
63395;BME280;49531;-34.520;150.798;2023-01-15T08:37:40;100894.53;;;27.08;58.75
63395;BME280;49531;-34.520;150.798;2023-01-15T08:40:10;100894.00;;;27.06;59.24
63395;BME280;49531;-34.520;150.798;2023-01-15T08:42:37;100893.59;;;26.99;59.61
63395;BME280;49531;-34.520;150.798;2023-01-15T08:45:05;100905.06;;;27.01;59.48
63395;BME280;49531;-34.520;150.798;2023-01-15T08:47:33;100916.84;;;27.02;59.18
63395;BME280;49531;-34.520;150.798;2023-01-15T08:50:00;100914.91;;;27.02;59.02
63395;BME280;49531;-34.520;150.798;2023-01-15T08:52:27;100911.97;;;26.99;59.64
63395;BME280;49531;-34.520;150.798;2023-01-15T08:54:54;100912.78;;;26.99;59.13
63395;BME280;49531;-34.520;150.798;2023-01-15T08:57:21;100916.63;;;26.98;59.06
63395;BME280;49531;-34.520;150.798;2023-01-15T08:59:48;100911.16;;;26.98;59.31
63395;BME280;49531;-34.520;150.798;2023-01-15T09:02:15;100912.25;;;26.97;59.11
63395;BME280;49531;-34.520;150.798;2023-01-15T09:04:43;100911.72;;;26.95;59.22
63395;BME280;49531;-34.520;150.798;2023-01-15T09:07:11;100915.88;;;26.92;59.30
63395;BME280;49531;-34.520;150.798;2023-01-15T09:09:38;100921.03;;;26.94;59.14
63395;BME280;49531;-34.520;150.798;2023-01-15T09:12:05;100915.06;;;26.92;59.09
63395;BME280;49531;-34.520;150.798;2023-01-15T09:14:32;100913.41;;;26.91;59.22
63395;BME280;49531;-34.520;150.798;2023-01-15T09:17:00;100915.66;;;26.89;59.51
63395;BME280;49531;-34.520;150.798;2023-01-15T09:19:27;100919.50;;;26.88;59.26
63395;BME280;49531;-34.520;150.798;2023-01-15T09:21:54;100920.59;;;26.87;59.40
63395;BME280;49531;-34.520;150.798;2023-01-15T09:24:21;100920.91;;;26.85;59.13
63395;BME280;49531;-34.520;150.798;2023-01-15T09:26:48;100925.56;;;26.85;59.33
63395;BME280;49531;-34.520;150.798;2023-01-15T09:29:18;100920.09;;;26.85;59.27
63395;BME280;49531;-34.520;150.798;2023-01-15T09:31:49;100927.78;;;26.83;59.57
63395;BME280;49531;-34.520;150.798;2023-01-15T09:34:16;100925.06;;;26.83;59.56
63395;BME280;49531;-34.520;150.798;2023-01-15T09:36:43;100928.91;;;26.82;59.26
63395;BME280;49531;-34.520;150.798;2023-01-15T09:39:12;100944.53;;;26.81;59.30
63395;BME280;49531;-34.520;150.798;2023-01-15T09:42:04;100941.28;;;26.79;59.21
63395;BME280;49531;-34.520;150.798;2023-01-15T09:45:00;100947.09;;;26.78;59.39
63395;BME280;49531;-34.520;150.798;2023-01-15T09:47:48;100946.28;;;26.77;59.33
63395;BME280;49531;-34.520;150.798;2023-01-15T09:50:41;100945.47;;;26.77;59.41
63395;BME280;49531;-34.520;150.798;2023-01-15T09:56:16;100951.53;;;26.74;59.51
63395;BME280;49531;-34.520;150.798;2023-01-15T09:58:45;100944.72;;;26.71;59.57
63395;BME280;49531;-34.520;150.798;2023-01-15T10:01:17;100945.53;;;26.72;59.63
63395;BME280;49531;-34.520;150.798;2023-01-15T10:03:50;100949.38;;;26.71;59.71
63395;BME280;49531;-34.520;150.798;2023-01-15T10:06:27;100948.06;;;26.68;59.84
63395;BME280;49531;-34.520;150.798;2023-01-15T10:09:11;100953.31;;;26.65;59.60
63395;BME280;49531;-34.520;150.798;2023-01-15T10:11:45;100954.94;;;26.66;59.89
63395;BME280;49531;-34.520;150.798;2023-01-15T10:14:33;100953.59;;;26.63;59.74
63395;BME280;49531;-34.520;150.798;2023-01-15T10:17:17;100951.16;;;26.62;59.99
63395;BME280;49531;-34.520;150.798;2023-01-15T10:19:45;100944.03;;;26.61;59.84
63395;BME280;49531;-34.520;150.798;2023-01-15T10:22:28;100950.63;;;26.60;59.78
63395;BME280;49531;-34.520;150.798;2023-01-15T10:24:58;100947.38;;;26.57;59.81
63395;BME280;49531;-34.520;150.798;2023-01-15T10:27:30;100954.47;;;26.58;59.88
63395;BME280;49531;-34.520;150.798;2023-01-15T10:30:11;100952.34;;;26.55;59.96
63395;BME280;49531;-34.520;150.798;2023-01-15T10:32:46;100962.25;;;26.51;60.34
63395;BME280;49531;-34.520;150.798;2023-01-15T10:35:38;100949.13;;;26.48;60.42
63395;BME280;49531;-34.520;150.798;2023-01-15T10:38:25;100948.63;;;26.46;60.26
63395;BME280;49531;-34.520;150.798;2023-01-15T10:41:19;100951.34;;;26.46;60.25
63395;BME280;49531;-34.520;150.798;2023-01-15T10:44:06;100965.56;;;26.48;60.18
63395;BME280;49531;-34.520;150.798;2023-01-15T10:46:37;100959.88;;;26.45;60.37
63395;BME280;49531;-34.520;150.798;2023-01-15T10:49:13;100970.00;;;26.44;60.46
63395;BME280;49531;-34.520;150.798;2023-01-15T10:51:49;100968.69;;;26.42;60.44
63395;BME280;49531;-34.520;150.798;2023-01-15T10:54:35;100970.59;;;26.41;60.44
63395;BME280;49531;-34.520;150.798;2023-01-15T10:57:11;100971.22;;;26.38;60.66
63395;BME280;49531;-34.520;150.798;2023-01-15T10:59:52;100983.56;;;26.36;60.62
63395;BME280;49531;-34.520;150.798;2023-01-15T11:02:37;100986.59;;;26.34;60.83
63395;BME280;49531;-34.520;150.798;2023-01-15T11:05:10;100994.81;;;26.34;60.50
63395;BME280;49531;-34.520;150.798;2023-01-15T11:07:42;100999.47;;;26.34;60.87
63395;BME280;49531;-34.520;150.798;2023-01-15T11:10:12;101002.50;;;26.32;60.63
63395;BME280;49531;-34.520;150.798;2023-01-15T11:12:50;101008.28;;;26.31;60.63
63395;BME280;49531;-34.520;150.798;2023-01-15T11:15:30;101018.16;;;26.27;60.96
63395;BME280;49531;-34.520;150.798;2023-01-15T11:18:15;101020.94;;;26.21;61.21
63395;BME280;49531;-34.520;150.798;2023-01-15T11:20:59;101026.44;;;26.21;61.26
63395;BME280;49531;-34.520;150.798;2023-01-15T11:23:28;101029.47;;;26.20;61.29
63395;BME280;49531;-34.520;150.798;2023-01-15T11:26:00;101032.19;;;26.20;61.14
63395;BME280;49531;-34.520;150.798;2023-01-15T11:28:35;101031.38;;;26.19;61.26
63395;BME280;49531;-34.520;150.798;2023-01-15T11:31:06;101039.88;;;26.18;61.55
63395;BME280;49531;-34.520;150.798;2023-01-15T11:33:33;101041.00;;;26.17;61.30
63395;BME280;49531;-34.520;150.798;2023-01-15T11:36:03;101041.81;;;26.17;61.61
63395;BME280;49531;-34.520;150.798;2023-01-15T11:38:44;101045.66;;;26.16;61.54
63395;BME280;49531;-34.520;150.798;2023-01-15T11:41:20;101046.50;;;26.12;61.55
63395;BME280;49531;-34.520;150.798;2023-01-15T11:43:56;101050.06;;;26.12;61.58
63395;BME280;49531;-34.520;150.798;2023-01-15T11:46:36;101057.47;;;26.12;61.70
63395;BME280;49531;-34.520;150.798;2023-01-15T11:49:17;101051.47;;;26.10;61.74
63395;BME280;49531;-34.520;150.798;2023-01-15T11:51:57;101058.34;;;26.07;62.13
63395;BME280;49531;-34.520;150.798;2023-01-15T11:54:26;101054.25;;;26.05;61.86
63395;BME280;49531;-34.520;150.798;2023-01-15T11:56:56;101062.41;;;26.10;61.92
63395;BME280;49531;-34.520;150.798;2023-01-15T11:59:24;101050.41;;;26.06;62.07
63395;BME280;49531;-34.520;150.798;2023-01-15T12:01:58;101072.59;;;26.04;62.06
63395;BME280;49531;-34.520;150.798;2023-01-15T12:04:33;101071.25;;;26.02;62.16
63395;BME280;49531;-34.520;150.798;2023-01-15T12:07:04;101073.72;;;26.03;61.92
63395;BME280;49531;-34.520;150.798;2023-01-15T12:09:48;101073.19;;;26.01;62.01
63395;BME280;49531;-34.520;150.798;2023-01-15T12:12:47;101082.22;;;26.02;62.36
63395;BME280;49531;-34.520;150.798;2023-01-15T12:15:28;101084.41;;;26.00;62.27
63395;BME280;49531;-34.520;150.798;2023-01-15T12:21:04;101083.38;;;25.96;62.87
63395;BME280;49531;-34.520;150.798;2023-01-15T12:23:52;101082.28;;;25.97;62.54
63395;BME280;49531;-34.520;150.798;2023-01-15T12:26:26;101072.44;;;25.96;62.68
63395;BME280;49531;-34.520;150.798;2023-01-15T12:29:20;101066.44;;;25.94;62.72
63395;BME280;49531;-34.520;150.798;2023-01-15T12:31:49;101071.66;;;25.90;62.88
63395;BME280;49531;-34.520;150.798;2023-01-15T12:34:23;101077.44;;;25.88;63.04
63395;BME280;49531;-34.520;150.798;2023-01-15T12:37:09;101086.75;;;25.87;63.12
63395;BME280;49531;-34.520;150.798;2023-01-15T12:39:47;101084.53;;;25.89;62.98
63395;BME280;49531;-34.520;150.798;2023-01-15T12:42:18;101085.09;;;25.86;62.89
63395;BME280;49531;-34.520;150.798;2023-01-15T12:45:02;101080.75;;;25.85;63.17
63395;BME280;49531;-34.520;150.798;2023-01-15T12:47:57;101072.00;;;25.83;63.42
63395;BME280;49531;-34.520;150.798;2023-01-15T12:50:45;101071.72;;;25.85;63.23
63395;BME280;49531;-34.520;150.798;2023-01-15T12:56:29;101073.91;;;25.83;63.31
63395;BME280;49531;-34.520;150.798;2023-01-15T12:59:16;101073.09;;;25.82;63.05
63395;BME280;49531;-34.520;150.798;2023-01-15T13:01:58;101084.63;;;25.79;63.08